Time;durP1;ratioP1;P1;durP2;ratioP2;P2;SDS_P1;SDS_P2;PMS_P1;PMS_P2;Temp;Humidity;BMP_temperature;BMP_pressure;BME280_temperature;BME280_humidity;BME280_pressure;Samples;Min_cycle;Max_cycle;Signal;HPM_P1;HPM_P2
2022/03/18 00:01:52;;;;;;;21.30;7.13;;;;;;;;;;4989773;28;20046;-78
2022/03/18 00:04:18;;;;;;;17.52;6.93;;;;;;;;;;4989590;28;20031;-77
2022/03/18 00:06:44;;;;;;;23.08;6.78;;;;;;;;;;4988526;28;20133;-81
2022/03/18 00:09:10;;;;;;;24.30;6.88;;;;;;;;;;4989609;28;20502;-77
2022/03/18 00:11:36;;;;;;;20.05;7.00;;;;;;;;;;4988534;28;20039;-78
2022/03/18 00:14:03;;;;;;;22.38;7.40;;;;;;;;;;4971139;28;20046;-77
2022/03/18 00:16:29;;;;;;;25.65;7.55;;;;;;;;;;4971295;28;20038;-77
2022/03/18 00:18:56;;;;;;;15.55;6.88;;;;;;;;;;4988108;28;20107;-77
2022/03/18 00:21:23;;;;;;;21.77;6.95;;;;;;;;;;4988013;28;20050;-77
2022/03/18 00:23:49;;;;;;;21.00;7.63;;;;;;;;;;4988401;28;20042;-77
2022/03/18 00:26:16;;;;;;;18.38;7.50;;;;;;;;;;4988063;28;20046;-78
2022/03/18 00:28:42;;;;;;;21.55;7.97;;;;;;;;;;4989555;28;20411;-77
2022/03/18 00:31:08;;;;;;;22.65;8.77;;;;;;;;;;4987629;28;20038;-77
2022/03/18 00:33:35;;;;;;;19.83;7.30;;;;;;;;;;4988227;28;20049;-78
2022/03/18 00:36:01;;;;;;;19.48;7.28;;;;;;;;;;4988937;28;20092;-77
2022/03/18 00:38:27;;;;;;;21.80;7.72;;;;;;;;;;4988052;28;20038;-77
2022/03/18 00:40:56;;;;;;;20.25;8.10;;;;;;;;;;4988376;28;20377;-77
2022/03/18 00:43:22;;;;;;;25.83;7.85;;;;;;;;;;4971807;28;20132;-82
2022/03/18 00:45:48;;;;;;;19.92;7.93;;;;;;;;;;4987823;28;20050;-82
2022/03/18 00:53:45;;;;;;;22.90;8.20;;;;;;;;;;4987837;28;20074;-82
2022/03/18 00:56:11;;;;;;;17.40;8.00;;;;;;;;;;5009613;28;20072;-82
2022/03/18 00:58:37;;;;;;;23.65;8.48;;;;;;;;;;5011035;28;20079;-82
2022/03/18 01:01:03;;;;;;;23.30;8.63;;;;;;;;;;5010450;28;20076;-82
2022/03/18 01:03:29;;;;;;;17.23;7.65;;;;;;;;;;5010456;28;20041;-82
2022/03/18 01:05:55;;;;;;;21.98;9.02;;;;;;;;;;5028597;28;20045;-82
2022/03/18 01:08:22;;;;;;;22.83;8.82;;;;;;;;;;5010219;28;20037;-82
2022/03/18 01:10:48;;;;;;;28.20;8.35;;;;;;;;;;5027890;28;20034;-77
2022/03/18 01:13:15;;;;;;;20.25;8.68;;;;;;;;;;5062263;28;20581;-82
2022/03/18 01:15:41;;;;;;;19.73;8.52;;;;;;;;;;5010312;28;20038;-77
2022/03/18 01:18:07;;;;;;;20.13;8.77;;;;;;;;;;5010411;28;21302;-77
2022/03/18 01:20:33;;;;;;;20.35;8.27;;;;;;;;;;5027952;28;20049;-77
2022/03/18 01:23:00;;;;;;;23.10;8.77;;;;;;;;;;5027661;28;20033;-77
2022/03/18 01:25:26;;;;;;;21.98;8.75;;;;;;;;;;5010096;28;20045;-77
2022/03/18 01:27:52;;;;;;;21.25;8.60;;;;;;;;;;4993729;28;20040;-77
2022/03/18 01:30:18;;;;;;;22.70;8.45;;;;;;;;;;5027616;28;20416;-77
2022/03/18 01:32:45;;;;;;;21.45;8.65;;;;;;;;;;5009895;28;20042;-77
2022/03/18 01:35:11;;;;;;;16.60;7.80;;;;;;;;;;5027613;28;20435;-77
2022/03/18 01:37:37;;;;;;;20.75;9.13;;;;;;;;;;5009965;28;20037;-81
2022/03/18 01:40:04;;;;;;;22.08;8.90;;;;;;;;;;5010207;28;20041;-81
2022/03/18 01:42:30;;;;;;;25.98;9.50;;;;;;;;;;4993974;28;20037;-81
2022/03/18 01:44:57;;;;;;;22.45;9.30;;;;;;;;;;5027704;28;20072;-81
2022/03/18 01:47:24;;;;;;;21.00;8.95;;;;;;;;;;5009722;28;20041;-81
2022/03/18 01:49:50;;;;;;;21.10;9.75;;;;;;;;;;4993555;28;20044;-81
2022/03/18 01:52:16;;;;;;;19.27;9.88;;;;;;;;;;5019595;28;20056;-81
2022/03/18 01:54:47;;;;;;;22.80;9.93;;;;;;;;;;5009548;28;20128;-81
2022/03/18 01:57:14;;;;;;;22.90;10.55;;;;;;;;;;5009200;28;20045;-77
2022/03/18 01:59:40;;;;;;;20.90;10.43;;;;;;;;;;5027559;28;20045;-77
2022/03/18 02:02:06;;;;;;;23.95;9.82;;;;;;;;;;5009076;28;20073;-77
2022/03/18 02:04:35;;;;;;;21.33;9.40;;;;;;;;;;5009035;28;20132;-77
2022/03/18 02:07:02;;;;;;;23.63;10.80;;;;;;;;;;5009121;28;20033;-81
2022/03/18 02:09:29;;;;;;;23.92;10.63;;;;;;;;;;5027348;28;20045;-81
2022/03/18 02:11:56;;;;;;;22.88;10.90;;;;;;;;;;5027517;28;20413;-81
2022/03/18 02:14:41;;;;;;;21.90;10.35;;;;;;;;;;5008900;28;20033;-81
2022/03/18 02:17:08;;;;;;;26.27;10.07;;;;;;;;;;5009252;28;20037;-81
2022/03/18 02:19:35;;;;;;;22.83;9.70;;;;;;;;;;5025816;28;20291;-81
2022/03/18 02:22:03;;;;;;;22.73;9.65;;;;;;;;;;4991593;28;20098;-77
2022/03/18 02:24:29;;;;;;;27.70;10.68;;;;;;;;;;5026906;28;20069;-77
2022/03/18 02:26:56;;;;;;;22.13;9.32;;;;;;;;;;5027106;28;20042;-81
2022/03/18 02:29:23;;;;;;;23.85;9.85;;;;;;;;;;5008770;28;20041;-81
2022/03/18 02:31:49;;;;;;;21.33;9.38;;;;;;;;;;4992695;28;20547;-81
2022/03/18 02:34:15;;;;;;;23.50;9.77;;;;;;;;;;5008877;28;20559;-81
2022/03/18 02:36:41;;;;;;;20.38;10.25;;;;;;;;;;4993059;28;20488;-81
2022/03/18 02:39:07;;;;;;;18.25;9.73;;;;;;;;;;5014531;28;20042;-81
2022/03/18 02:41:33;;;;;;;24.10;11.10;;;;;;;;;;5016227;28;20424;-81
2022/03/18 02:44:00;;;;;;;21.30;9.88;;;;;;;;;;5015154;28;20041;-77
2022/03/18 02:46:26;;;;;;;24.17;10.38;;;;;;;;;;5033265;28;20112;-77
2022/03/18 02:48:52;;;;;;;25.38;11.32;;;;;;;;;;5014848;28;20034;-77
2022/03/18 02:51:18;;;;;;;20.17;9.43;;;;;;;;;;5015213;28;20038;-77
2022/03/18 02:53:45;;;;;;;17.20;9.45;;;;;;;;;;5015610;28;20049;-77
2022/03/18 02:56:12;;;;;;;21.48;10.70;;;;;;;;;;5032731;28;20041;-77
2022/03/18 02:58:39;;;;;;;22.60;10.70;;;;;;;;;;4999032;28;20052;-77
2022/03/18 03:01:05;;;;;;;22.50;11.18;;;;;;;;;;5008443;28;20158;-77
2022/03/18 03:03:31;;;;;;;29.80;11.95;;;;;;;;;;5021167;28;20504;-77
2022/03/18 03:08:42;;;;;;;25.95;12.00;;;;;;;;;;5014701;28;20046;-77
2022/03/18 03:11:08;;;;;;;25.63;11.55;;;;;;;;;;5015064;28;20041;-81
2022/03/18 03:13:34;;;;;;;25.88;11.80;;;;;;;;;;4999284;28;20091;-81
2022/03/18 03:16:01;;;;;;;22.65;11.20;;;;;;;;;;5015154;28;20033;-81
2022/03/18 03:18:28;;;;;;;22.45;12.07;;;;;;;;;;5032973;28;20042;-81
2022/03/18 03:20:54;;;;;;;28.23;12.38;;;;;;;;;;5015488;28;20112;-81
2022/03/18 03:23:23;;;;;;;21.77;10.55;;;;;;;;;;4982326;28;20037;-81
2022/03/18 03:25:50;;;;;;;25.40;12.77;;;;;;;;;;5010262;28;20132;-81
2022/03/18 03:28:17;;;;;;;23.33;10.35;;;;;;;;;;4998239;28;20045;-81
2022/03/18 03:30:44;;;;;;;18.75;9.63;;;;;;;;;;4998598;28;20163;-81
2022/03/18 03:33:10;;;;;;;15.10;7.38;;;;;;;;;;5014748;28;20125;-81
2022/03/18 03:35:36;;;;;;;17.42;9.18;;;;;;;;;;5014796;28;20116;-81
2022/03/18 03:38:03;;;;;;;21.92;11.25;;;;;;;;;;5014553;28;20034;-81
2022/03/18 03:40:29;;;;;;;17.90;9.93;;;;;;;;;;5015149;28;20042;-81
2022/03/18 03:42:55;;;;;;;28.67;13.23;;;;;;;;;;5014993;28;20386;-81
2022/03/18 03:45:21;;;;;;;23.20;11.63;;;;;;;;;;5014143;28;20085;-81
2022/03/18 03:47:47;;;;;;;22.17;11.60;;;;;;;;;;5014985;28;20060;-81
2022/03/18 03:50:13;;;;;;;31.83;13.40;;;;;;;;;;5028694;28;20038;-81
2022/03/18 03:52:41;;;;;;;27.55;13.10;;;;;;;;;;5029378;28;20483;-81
2022/03/18 03:55:09;;;;;;;20.92;11.65;;;;;;;;;;5011155;28;20080;-81
2022/03/18 03:57:35;;;;;;;23.13;11.68;;;;;;;;;;5011383;28;20068;-81
2022/03/18 04:00:01;;;;;;;23.10;11.65;;;;;;;;;;5011178;28;20041;-81
2022/03/18 04:02:27;;;;;;;25.15;12.73;;;;;;;;;;4995199;28;20045;-81
2022/03/18 04:04:53;;;;;;;25.10;13.43;;;;;;;;;;5028643;28;20117;-81
2022/03/18 04:07:20;;;;;;;23.95;12.63;;;;;;;;;;5010877;28;20042;-81
2022/03/18 04:09:49;;;;;;;22.10;12.73;;;;;;;;;;5010945;28;20049;-81
2022/03/18 04:12:15;;;;;;;24.48;12.25;;;;;;;;;;5011309;28;20383;-81
2022/03/18 04:14:41;;;;;;;22.40;11.60;;;;;;;;;;5029062;28;20048;-81
2022/03/18 04:17:07;;;;;;;20.52;11.57;;;;;;;;;;4994975;28;20037;-82
2022/03/18 04:19:33;;;;;;;19.48;10.48;;;;;;;;;;5011387;28;20030;-82
2022/03/18 04:22:00;;;;;;;22.52;11.75;;;;;;;;;;5029014;28;20375;-82
2022/03/18 04:24:26;;;;;;;29.48;13.13;;;;;;;;;;4995097;28;20076;-82
2022/03/18 04:26:52;;;;;;;23.45;12.77;;;;;;;;;;4994723;28;20038;-82
2022/03/18 04:29:18;;;;;;;29.60;14.82;;;;;;;;;;5010968;28;20140;-82
2022/03/18 04:31:45;;;;;;;24.65;13.70;;;;;;;;;;4994951;28;20044;-82
2022/03/18 04:34:12;;;;;;;27.15;15.27;;;;;;;;;;5010790;28;20044;-82
2022/03/18 04:36:38;;;;;;;25.80;14.20;;;;;;;;;;5011265;28;20049;-82
2022/03/18 04:39:04;;;;;;;26.10;14.63;;;;;;;;;;5029354;28;20033;-82
2022/03/18 04:41:30;;;;;;;28.25;16.67;;;;;;;;;;4996207;28;20042;-82
2022/03/18 04:43:56;;;;;;;31.02;15.50;;;;;;;;;;5029478;28;20048;-82
2022/03/18 04:46:22;;;;;;;38.47;18.60;;;;;;;;;;5010718;28;20034;-82
2022/03/18 04:48:48;;;;;;;31.15;16.15;;;;;;;;;;5011043;28;20048;-82
2022/03/18 04:51:14;;;;;;;32.10;19.95;;;;;;;;;;5010989;28;20502;-82
2022/03/18 04:53:42;;;;;;;35.28;17.25;;;;;;;;;;4978305;28;20041;-82
2022/03/18 04:57:15;;;;;;;33.72;15.73;;;;;;;;;;5005429;28;20088;-82
2022/03/18 04:58:54;;;;;;;27.00;15.00;;;;;;;;;;5010616;28;20049;-82
2022/03/18 05:01:21;;;;;;;29.80;16.63;;;;;;;;;;4989697;28;20030;-82
2022/03/18 05:03:47;;;;;;;19.27;11.30;;;;;;;;;;5030496;28;20538;-78
2022/03/18 05:06:13;;;;;;;17.77;11.20;;;;;;;;;;5009013;28;20106;-77
2022/03/18 05:08:39;;;;;;;19.58;11.75;;;;;;;;;;5009955;28;20041;-77
2022/03/18 05:11:05;;;;;;;23.42;12.60;;;;;;;;;;5010457;28;20502;-77
2022/03/18 05:13:31;;;;;;;26.23;12.75;;;;;;;;;;5028352;28;20033;-77
2022/03/18 05:15:57;;;;;;;22.10;11.90;;;;;;;;;;5010896;28;20041;-77
2022/03/18 05:18:23;;;;;;;28.23;14.13;;;;;;;;;;5010824;28;20038;-78
2022/03/18 05:20:50;;;;;;;24.85;13.98;;;;;;;;;;5011410;28;20514;-77
2022/03/18 05:23:17;;;;;;;24.13;14.73;;;;;;;;;;5028983;28;20047;-77
2022/03/18 05:25:44;;;;;;;29.13;14.10;;;;;;;;;;5011605;28;20050;-82
2022/03/18 05:28:10;;;;;;;26.20;14.25;;;;;;;;;;5028045;28;20163;-82
2022/03/18 05:30:38;;;;;;;23.27;13.82;;;;;;;;;;5010638;28;20045;-82
2022/03/18 05:33:04;;;;;;;26.10;15.27;;;;;;;;;;4993705;28;20121;-77
2022/03/18 05:35:30;;;;;;;25.92;14.98;;;;;;;;;;5028083;28;20041;-77
2022/03/18 05:37:56;;;;;;;29.42;16.75;;;;;;;;;;4993378;28;20029;-77
2022/03/18 05:40:22;;;;;;;34.13;18.10;;;;;;;;;;5009960;28;20501;-77
2022/03/18 05:42:48;;;;;;;37.28;19.25;;;;;;;;;;4993628;28;20041;-77
2022/03/18 05:45:15;;;;;;;39.20;18.73;;;;;;;;;;5027192;28;20052;-77
2022/03/18 05:47:41;;;;;;;34.75;19.48;;;;;;;;;;5027510;28;20083;-77
2022/03/18 05:50:08;;;;;;;37.53;18.80;;;;;;;;;;5009587;28;20075;-77
2022/03/18 05:52:39;;;;;;;28.77;16.38;;;;;;;;;;4994045;28;20037;-77
2022/03/18 05:55:05;;;;;;;28.33;15.50;;;;;;;;;;5010133;28;20045;-77
2022/03/18 05:57:32;;;;;;;28.27;16.85;;;;;;;;;;5009999;28;20482;-78
2022/03/18 05:59:59;;;;;;;33.97;20.50;;;;;;;;;;5009702;28;20049;-77
2022/03/18 06:02:25;;;;;;;32.58;19.40;;;;;;;;;;5010183;28;20138;-77
2022/03/18 06:04:51;;;;;;;31.00;18.80;;;;;;;;;;5027621;28;20037;-77
2022/03/18 06:07:17;;;;;;;33.72;18.85;;;;;;;;;;5027197;28;20038;-82
2022/03/18 06:12:28;;;;;;;27.77;15.27;;;;;;;;;;5006329;28;20149;-82
2022/03/18 06:14:54;;;;;;;27.77;16.48;;;;;;;;;;5009440;28;20041;-82
2022/03/18 06:17:20;;;;;;;26.33;16.13;;;;;;;;;;5009330;28;20052;-82
2022/03/18 06:19:47;;;;;;;26.05;15.68;;;;;;;;;;4993354;28;20480;-82
2022/03/18 06:22:13;;;;;;;29.73;16.60;;;;;;;;;;5008979;28;20083;-82
2022/03/18 06:24:40;;;;;;;28.10;15.35;;;;;;;;;;5027380;28;20044;-82
2022/03/18 06:27:06;;;;;;;27.85;16.05;;;;;;;;;;5008978;28;20049;-82
2022/03/18 06:29:32;;;;;;;24.98;14.25;;;;;;;;;;5009855;28;20428;-82
2022/03/18 06:32:01;;;;;;;23.90;13.73;;;;;;;;;;5009438;28;20520;-82
2022/03/18 06:34:28;;;;;;;20.02;12.15;;;;;;;;;;5009620;28;20524;-80
2022/03/18 06:36:55;;;;;;;23.13;12.13;;;;;;;;;;5009269;28;20077;-80
2022/03/18 06:39:22;;;;;;;17.67;11.55;;;;;;;;;;5009011;28;20033;-80
2022/03/18 06:41:48;;;;;;;18.02;10.70;;;;;;;;;;5008621;28;20057;-80
2022/03/18 06:44:22;;;;;;;18.48;10.90;;;;;;;;;;5008559;28;20120;-83
2022/03/18 06:46:49;;;;;;;16.10;9.77;;;;;;;;;;5009284;28;20096;-80
2022/03/18 06:49:15;;;;;;;13.63;9.32;;;;;;;;;;5003170;28;20041;-76
2022/03/18 06:51:41;;;;;;;17.48;10.18;;;;;;;;;;4992592;28;20050;-77
2022/03/18 06:54:07;;;;;;;17.08;9.65;;;;;;;;;;5008794;28;20478;-80
2022/03/18 06:56:34;;;;;;;14.27;9.57;;;;;;;;;;5053345;28;20056;-76
2022/03/18 06:59:00;;;;;;;13.95;9.40;;;;;;;;;;5079315;28;20132;-76
2022/03/18 07:01:26;;;;;;;12.88;9.95;;;;;;;;;;5085581;28;20089;-77
2022/03/18 07:03:53;;;;;;;18.05;10.07;;;;;;;;;;5083612;28;20052;-77
2022/03/18 07:06:19;;;;;;;12.82;8.55;;;;;;;;;;5085578;28;20047;-77
2022/03/18 07:08:45;;;;;;;14.98;9.65;;;;;;;;;;5085547;28;20051;-77
2022/03/18 07:11:13;;;;;;;15.50;9.90;;;;;;;;;;5083220;28;20040;-78
2022/03/18 07:13:40;;;;;;;18.33;10.30;;;;;;;;;;5083593;28;20044;-77
2022/03/18 07:18:51;;;;;;;16.15;10.05;;;;;;;;;;5084482;28;20512;-78
2022/03/18 07:21:17;;;;;;;16.20;9.93;;;;;;;;;;5070945;28;20036;-78
2022/03/18 07:23:43;;;;;;;15.25;10.48;;;;;;;;;;5085592;28;20474;-78
2022/03/18 07:26:09;;;;;;;16.23;10.85;;;;;;;;;;5086429;28;20119;-78
2022/03/18 07:28:35;;;;;;;25.25;13.32;;;;;;;;;;5090085;28;20039;-78
2022/03/18 07:31:01;;;;;;;23.95;15.43;;;;;;;;;;5082438;28;20090;-78
2022/03/18 07:33:28;;;;;;;30.92;17.55;;;;;;;;;;5088378;28;20111;-78
2022/03/18 07:35:54;;;;;;;30.10;18.52;;;;;;;;;;5085284;28;20039;-78
2022/03/18 07:38:20;;;;;;;33.95;20.50;;;;;;;;;;5072004;28;20128;-78
2022/03/18 07:40:47;;;;;;;36.05;20.45;;;;;;;;;;5072978;28;20063;-78
2022/03/18 07:43:13;;;;;;;33.63;21.58;;;;;;;;;;5091745;28;20047;-80
2022/03/18 07:45:39;;;;;;;37.70;21.35;;;;;;;;;;5092135;28;20043;-80
2022/03/18 07:48:07;;;;;;;35.60;20.40;;;;;;;;;;5087769;28;20047;-78
2022/03/18 07:50:34;;;;;;;33.47;19.48;;;;;;;;;;5090007;28;20374;-78
2022/03/18 07:53:05;;;;;;;31.13;18.13;;;;;;;;;;5089108;28;20094;-80
2022/03/18 07:55:32;;;;;;;32.50;16.85;;;;;;;;;;5073583;28;20047;-80
2022/03/18 07:57:59;;;;;;;29.85;17.55;;;;;;;;;;4994968;28;20060;-80
2022/03/18 08:00:25;;;;;;;32.88;18.73;;;;;;;;;;5029500;28;20038;-79
2022/03/18 08:02:52;;;;;;;29.95;18.35;;;;;;;;;;5012315;28;20439;-80
2022/03/18 08:05:19;;;;;;;29.48;16.98;;;;;;;;;;5012644;28;20038;-80
2022/03/18 08:07:46;;;;;;;28.45;17.88;;;;;;;;;;5012409;28;20049;-78
2022/03/18 08:10:13;;;;;;;35.13;18.73;;;;;;;;;;5011494;28;20034;-78
2022/03/18 08:12:40;;;;;;;38.08;20.13;;;;;;;;;;5012154;28;20103;-79
2022/03/18 08:15:08;;;;;;;31.45;18.20;;;;;;;;;;5011350;28;20184;-80
2022/03/18 08:17:34;;;;;;;31.48;17.23;;;;;;;;;;5011621;28;20045;-80
2022/03/18 08:20:00;;;;;;;27.13;16.83;;;;;;;;;;4994851;28;20098;-79
2022/03/18 08:22:27;;;;;;;27.63;15.40;;;;;;;;;;5011080;28;20131;-79
2022/03/18 08:24:54;;;;;;;29.58;15.75;;;;;;;;;;4994446;28;20102;-79
2022/03/18 08:27:20;;;;;;;29.90;15.73;;;;;;;;;;5010728;28;20033;-80
2022/03/18 08:29:47;;;;;;;25.85;13.68;;;;;;;;;;5011041;28;20511;-79
2022/03/18 08:32:14;;;;;;;22.23;14.00;;;;;;;;;;5010825;28;20045;-79
2022/03/18 08:34:40;;;;;;;26.75;14.23;;;;;;;;;;5028820;28;20045;-79
2022/03/18 08:37:06;;;;;;;26.67;14.88;;;;;;;;;;5009797;28;20076;-79
2022/03/18 08:39:37;;;;;;;25.55;15.57;;;;;;;;;;4994773;28;20454;-79
2022/03/18 08:42:03;;;;;;;30.65;16.40;;;;;;;;;;5010492;28;20071;-79
2022/03/18 08:44:29;;;;;;;26.73;15.18;;;;;;;;;;5029161;28;20124;-79
2022/03/18 08:46:57;;;;;;;24.58;14.07;;;;;;;;;;5011367;28;20045;-78
2022/03/18 08:49:23;;;;;;;25.17;13.98;;;;;;;;;;5012262;28;20053;-79
2022/03/18 08:51:49;;;;;;;25.13;14.27;;;;;;;;;;5012146;28;20053;-79
2022/03/18 08:54:15;;;;;;;20.38;11.90;;;;;;;;;;5028601;28;20494;-78
2022/03/18 08:56:41;;;;;;;19.40;11.10;;;;;;;;;;5011003;28;20057;-79
2022/03/18 08:59:07;;;;;;;16.48;6.53;;;;;;;;;;5010908;28;20371;-78
2022/03/18 09:01:34;;;;;;;11.30;5.93;;;;;;;;;;5010887;28;20049;-78
2022/03/18 09:04:00;;;;;;;12.13;5.57;;;;;;;;;;5010901;28;20041;-78
2022/03/18 09:06:26;;;;;;;12.10;6.07;;;;;;;;;;5008799;28;20480;-78
2022/03/18 09:08:53;;;;;;;16.52;6.70;;;;;;;;;;5010288;28;20045;-78
2022/03/18 09:11:19;;;;;;;14.07;6.13;;;;;;;;;;5010238;28;20069;-78
2022/03/18 09:13:45;;;;;;;11.98;5.47;;;;;;;;;;5010555;28;20045;-78
2022/03/18 09:16:12;;;;;;;13.35;6.40;;;;;;;;;;4994247;28;20041;-78
2022/03/18 09:18:38;;;;;;;15.52;5.95;;;;;;;;;;5011422;28;20042;-78
2022/03/18 09:21:04;;;;;;;12.88;5.80;;;;;;;;;;5011041;28;20044;-78
2022/03/18 09:23:31;;;;;;;17.50;5.97;;;;;;;;;;5028381;28;20030;-78
2022/03/18 09:25:57;;;;;;;12.05;6.03;;;;;;;;;;4994417;28;20082;-78
2022/03/18 09:28:23;;;;;;;13.30;5.88;;;;;;;;;;5010869;28;20041;-78
2022/03/18 09:30:49;;;;;;;9.65;5.40;;;;;;;;;;5011056;28;20037;-78
2022/03/18 09:33:15;;;;;;;11.68;5.72;;;;;;;;;;5028281;28;20518;-78
2022/03/18 09:35:43;;;;;;;10.65;5.93;;;;;;;;;;5011204;28;20092;-77
2022/03/18 09:38:09;;;;;;;11.70;6.00;;;;;;;;;;5010065;28;20073;-78
2022/03/18 09:40:37;;;;;;;12.95;6.10;;;;;;;;;;5010466;28;20084;-78
2022/03/18 09:43:03;;;;;;;11.00;5.30;;;;;;;;;;5010331;28;20033;-78
2022/03/18 09:45:33;;;;;;;10.48;5.22;;;;;;;;;;5027613;28;20051;-78
2022/03/18 09:47:59;;;;;;;12.10;5.70;;;;;;;;;;5008659;28;20049;-78
2022/03/18 09:50:26;;;;;;;10.90;5.40;;;;;;;;;;5009763;28;20049;-78
2022/03/18 09:52:52;;;;;;;12.02;5.63;;;;;;;;;;5018877;28;20064;-77
2022/03/18 09:55:19;;;;;;;13.32;5.30;;;;;;;;;;5027448;28;20030;-77
2022/03/18 09:57:45;;;;;;;12.02;5.45;;;;;;;;;;5010630;28;20546;-78
2022/03/18 10:00:11;;;;;;;12.07;5.32;;;;;;;;;;5009680;28;20037;-78
2022/03/18 10:02:38;;;;;;;13.48;5.60;;;;;;;;;;4993588;28;20056;-77
2022/03/18 10:05:06;;;;;;;10.73;5.18;;;;;;;;;;5009548;28;20120;-77
2022/03/18 10:07:32;;;;;;;11.00;5.63;;;;;;;;;;5009216;28;20106;-77
2022/03/18 10:10:05;;;;;;;10.20;5.60;;;;;;;;;;5009644;28;20049;-77
2022/03/18 10:12:51;;;;;;;12.52;5.75;;;;;;;;;;5026845;28;20038;-78
2022/03/18 10:15:26;;;;;;;13.10;5.65;;;;;;;;;;4992927;28;20076;-78
2022/03/18 10:17:57;;;;;;;10.85;5.07;;;;;;;;;;4993440;28;20521;-76
2022/03/18 10:20:23;;;;;;;11.98;5.90;;;;;;;;;;5009004;28;20037;-77
2022/03/18 10:22:50;;;;;;;11.38;5.20;;;;;;;;;;4992874;28;20041;-77
2022/03/18 10:25:36;;;;;;;11.65;4.50;;;;;;;;;;5008897;28;20049;-77
2022/03/18 10:28:03;;;;;;;9.60;4.60;;;;;;;;;;5009502;28;20053;-77
2022/03/18 10:30:30;;;;;;;12.30;5.38;;;;;;;;;;5009208;28;20520;-77
2022/03/18 10:32:57;;;;;;;12.73;4.78;;;;;;;;;;5009368;28;20045;-76
2022/03/18 10:38:27;;;;;;;10.52;5.35;;;;;;;;;;5009422;28;20042;-77
2022/03/18 10:40:54;;;;;;;11.27;4.88;;;;;;;;;;5026678;28;20041;-76
2022/03/18 10:43:20;;;;;;;12.82;4.32;;;;;;;;;;5026475;28;20061;-76
2022/03/18 10:46:03;;;;;;;10.23;4.47;;;;;;;;;;5027244;28;20037;-75
2022/03/18 10:48:29;;;;;;;9.98;4.68;;;;;;;;;;5008904;28;20033;-76
2022/03/18 10:51:05;;;;;;;10.35;4.85;;;;;;;;;;5008795;28;20038;-76
2022/03/18 10:53:32;;;;;;;10.00;4.35;;;;;;;;;;5026637;28;20038;-76
2022/03/18 10:56:01;;;;;;;12.32;4.63;;;;;;;;;;5008594;28;20037;-76
2022/03/18 10:58:29;;;;;;;10.90;4.60;;;;;;;;;;4992397;28;20847;-77
2022/03/18 11:00:58;;;;;;;11.02;4.63;;;;;;;;;;5012205;28;20047;-77
2022/03/18 11:03:25;;;;;;;10.43;4.25;;;;;;;;;;4996017;28;20451;-77
2022/03/18 11:05:51;;;;;;;10.48;4.65;;;;;;;;;;5012428;28;20084;-76
2022/03/18 11:08:22;;;;;;;9.43;4.10;;;;;;;;;;4995611;28;20098;-76
2022/03/18 11:11:11;;;;;;;10.02;4.38;;;;;;;;;;5012481;28;20080;-76
2022/03/18 11:13:42;;;;;;;10.15;4.30;;;;;;;;;;5010014;28;20046;-77
2022/03/18 11:16:11;;;;;;;9.25;4.47;;;;;;;;;;5012056;28;20091;-77
2022/03/18 11:18:37;;;;;;;8.85;3.63;;;;;;;;;;5011802;28;20046;-77
2022/03/18 11:21:06;;;;;;;7.90;3.38;;;;;;;;;;5011746;28;20072;-77
2022/03/18 11:23:32;;;;;;;11.05;4.40;;;;;;;;;;5029601;28;20048;-74
2022/03/18 11:26:00;;;;;;;8.93;4.13;;;;;;;;;;5011704;28;20052;-77
2022/03/18 11:28:27;;;;;;;10.38;3.58;;;;;;;;;;5011607;28;20056;-77
2022/03/18 11:31:03;;;;;;;7.75;3.70;;;;;;;;;;5029739;28;20038;-77
2022/03/18 11:33:29;;;;;;;9.55;4.07;;;;;;;;;;5029341;28;20053;-77
2022/03/18 11:35:55;;;;;;;11.70;3.70;;;;;;;;;;5012007;28;20041;-77
2022/03/18 11:38:31;;;;;;;8.90;4.00;;;;;;;;;;5011573;28;20041;-77
2022/03/18 11:41:02;;;;;;;9.35;3.92;;;;;;;;;;5029375;28;20052;-76
2022/03/18 11:43:49;;;;;;;12.73;3.50;;;;;;;;;;5011845;28;20041;-76
2022/03/18 11:46:20;;;;;;;9.43;3.78;;;;;;;;;;5011434;28;20352;-76
2022/03/18 11:48:53;;;;;;;10.73;4.60;;;;;;;;;;5029228;28;20497;-76
2022/03/18 11:51:26;;;;;;;9.57;3.97;;;;;;;;;;5011762;28;20536;-76
2022/03/18 11:53:54;;;;;;;8.00;2.92;;;;;;;;;;5011890;28;20052;-76
2022/03/18 11:56:50;;;;;;;9.13;3.53;;;;;;;;;;5011472;28;20049;-76
2022/03/18 11:59:25;;;;;;;9.93;3.80;;;;;;;;;;5011171;28;20068;-76
2022/03/18 12:01:52;;;;;;;11.38;4.43;;;;;;;;;;5011391;28;20427;-76
2022/03/18 12:04:34;;;;;;;9.02;4.20;;;;;;;;;;5011266;28;20049;-76
2022/03/18 12:07:15;;;;;;;7.97;3.00;;;;;;;;;;5011496;28;20050;-75
2022/03/18 12:09:52;;;;;;;11.73;3.30;;;;;;;;;;5028674;28;20076;-76
2022/03/18 12:12:19;;;;;;;10.20;3.25;;;;;;;;;;5010378;28;20042;-76
2022/03/18 12:14:45;;;;;;;8.70;3.08;;;;;;;;;;5030981;28;20077;-76
2022/03/18 12:17:12;;;;;;;9.18;3.42;;;;;;;;;;5012304;28;20042;-76
2022/03/18 12:19:38;;;;;;;9.43;3.55;;;;;;;;;;5011979;28;20088;-76
2022/03/18 12:22:06;;;;;;;10.93;4.25;;;;;;;;;;5011494;28;20482;-75
2022/03/18 12:24:32;;;;;;;9.82;4.05;;;;;;;;;;5010787;28;20120;-75
2022/03/18 12:27:02;;;;;;;9.98;4.22;;;;;;;;;;5011133;28;20044;-76
2022/03/18 12:29:29;;;;;;;9.80;3.00;;;;;;;;;;5011017;28;20041;-75
2022/03/18 12:32:02;;;;;;;8.25;3.10;;;;;;;;;;5028601;28;20482;-76
2022/03/18 12:34:28;;;;;;;8.20;3.58;;;;;;;;;;5010566;28;20037;-76
2022/03/18 12:36:54;;;;;;;7.35;2.50;;;;;;;;;;5011388;28;20126;-76
2022/03/18 12:39:20;;;;;;;9.65;2.70;;;;;;;;;;5028195;28;20038;-76
2022/03/18 12:41:46;;;;;;;8.25;3.00;;;;;;;;;;5010832;28;20041;-76
2022/03/18 12:44:13;;;;;;;7.82;3.13;;;;;;;;;;5010591;28;20097;-76
2022/03/18 12:46:40;;;;;;;7.72;3.05;;;;;;;;;;5010667;28;20100;-75
2022/03/18 12:49:10;;;;;;;8.20;2.97;;;;;;;;;;5010565;28;20037;-75
2022/03/18 12:51:36;;;;;;;7.82;2.80;;;;;;;;;;5010587;28;20064;-76
2022/03/18 12:54:02;;;;;;;7.93;3.20;;;;;;;;;;5010501;28;20045;-75
2022/03/18 12:56:29;;;;;;;9.10;3.45;;;;;;;;;;5009174;28;20052;-75
2022/03/18 12:58:57;;;;;;;8.43;3.20;;;;;;;;;;5085522;28;20079;-75
2022/03/18 13:01:23;;;;;;;8.07;3.40;;;;;;;;;;5088945;28;20107;-75
2022/03/18 13:03:51;;;;;;;11.18;3.92;;;;;;;;;;5078578;28;20124;-75
2022/03/18 13:06:22;;;;;;;13.32;3.85;;;;;;;;;;5090188;28;20129;-75
2022/03/18 13:09:05;;;;;;;10.52;3.65;;;;;;;;;;5083142;28;20048;-75
2022/03/18 13:11:35;;;;;;;11.98;3.50;;;;;;;;;;5080664;28;20032;-75
2022/03/18 13:14:02;;;;;;;9.57;3.13;;;;;;;;;;5071094;28;20067;-75
2022/03/18 13:16:37;;;;;;;9.70;3.30;;;;;;;;;;5083217;28;20044;-75
2022/03/18 13:19:04;;;;;;;7.40;2.40;;;;;;;;;;5086423;28;20486;-75
2022/03/18 13:21:39;;;;;;;16.05;3.30;;;;;;;;;;5089592;28;20044;-74
2022/03/18 13:24:05;;;;;;;30.20;3.57;;;;;;;;;;5091260;28;20039;-75
2022/03/18 13:26:31;;;;;;;6.93;2.80;;;;;;;;;;5080827;28;20043;-74
2022/03/18 13:28:57;;;;;;;12.38;2.80;;;;;;;;;;5068514;28;20048;-75
2022/03/18 13:34:08;;;;;;;11.93;3.47;;;;;;;;;;5079103;28;20036;-75
2022/03/18 13:36:38;;;;;;;13.60;3.60;;;;;;;;;;5086388;28;20071;-76
2022/03/18 13:39:06;;;;;;;12.73;3.97;;;;;;;;;;5087005;28;20040;-75
2022/03/18 13:42:01;;;;;;;11.05;4.05;;;;;;;;;;5087091;28;20039;-76
2022/03/18 13:44:43;;;;;;;7.18;2.60;;;;;;;;;;5068147;28;20036;-76
2022/03/18 13:47:09;;;;;;;16.10;3.70;;;;;;;;;;5088009;28;20036;-76
2022/03/18 13:49:36;;;;;;;14.88;4.28;;;;;;;;;;5084742;28;20489;-75
2022/03/18 13:52:06;;;;;;;12.48;3.83;;;;;;;;;;5086133;28;20036;-76
2022/03/18 13:54:42;;;;;;;7.90;3.35;;;;;;;;;;5087669;28;20038;-76
2022/03/18 13:57:08;;;;;;;12.27;3.95;;;;;;;;;;5058384;28;20108;-76
2022/03/18 13:59:34;;;;;;;11.25;3.55;;;;;;;;;;5020015;28;20044;-75
2022/03/18 14:02:01;;;;;;;8.68;3.90;;;;;;;;;;5027171;28;20049;-76
2022/03/18 14:04:49;;;;;;;10.48;3.40;;;;;;;;;;5009605;28;20066;-76
2022/03/18 14:07:16;;;;;;;9.10;3.20;;;;;;;;;;5009433;28;20049;-76
2022/03/18 14:10:07;;;;;;;10.15;3.13;;;;;;;;;;4993717;28;20041;-76
2022/03/18 14:12:33;;;;;;;8.50;3.15;;;;;;;;;;5009426;28;20521;-76
2022/03/18 14:15:26;;;;;;;9.90;3.58;;;;;;;;;;5027188;28;20029;-75
2022/03/18 14:17:56;;;;;;;12.75;3.40;;;;;;;;;;5008883;28;20049;-76
2022/03/18 14:20:22;;;;;;;8.45;3.20;;;;;;;;;;5009044;28;20045;-75
2022/03/18 14:22:53;;;;;;;9.95;3.15;;;;;;;;;;5009959;28;20052;-75
2022/03/18 14:25:19;;;;;;;8.27;3.25;;;;;;;;;;5008893;28;20049;-75
2022/03/18 14:27:46;;;;;;;11.02;3.85;;;;;;;;;;5027229;28;20035;-76
2022/03/18 14:30:13;;;;;;;11.38;3.20;;;;;;;;;;5026675;28;20131;-76
2022/03/18 14:32:43;;;;;;;6.75;3.10;;;;;;;;;;5009960;28;20050;-76
2022/03/18 14:35:09;;;;;;;13.27;3.40;;;;;;;;;;5027183;28;20041;-75
2022/03/18 14:37:36;;;;;;;10.68;3.38;;;;;;;;;;5007394;28;20037;-75
2022/03/18 14:40:07;;;;;;;12.57;3.33;;;;;;;;;;5009234;28;20041;-75
2022/03/18 14:42:33;;;;;;;10.35;3.00;;;;;;;;;;5008963;28;20045;-75
2022/03/18 14:44:59;;;;;;;7.68;3.15;;;;;;;;;;5009380;28;20037;-76
2022/03/18 14:47:26;;;;;;;8.43;3.17;;;;;;;;;;5027208;28;20075;-75
2022/03/18 14:49:52;;;;;;;10.00;2.97;;;;;;;;;;5027022;28;20037;-75